Terminal Aerodrome Forecast
Issued by NWS Cleveland, OH

Home | Current Version | Previous Version | Text Only | Print | Product List | Glossary Off
Versions: 1 2 3 4 5 6 7 8 9 10 11 12 13 14 15

000
FTUS41 KCLE 302300
TAFTOL
TAF
KTOL 302338Z 0100/0124 31005KT P6SM OVC035
     FM010800 34005KT P6SM SCT050 BKN250
     FM011800 35007KT P6SM SCT060=

USA.gov is the U.S. government's official web portal to all federal, state and local government web resources and services.